Artemare, France

7:51 PM CEST on July 21, 2017 (GMT +0200)
Ceyzérieu | | Change Station

Elev 0 ft 45.83 °N, 5.72 °E | Updated 2 minutes ago

Rain
Rain
74.1 °F
Feels Like 76 °F
N
1.2
Wind Variable Wind from NW
Gusts 3.7 mph

Today
High -- | Low -- °F
--% Chance of Precip.
Yesterday
High -- | Low -- °F
Precip. -- in
Pressure 29.95 in
Visibility 6.2 miles
Clouds Few 4900 ft
Mostly Cloudy 5600 ft
Mostly Cloudy 7200 ft
Heat Index 76 °F
Dew Point 63 °F
Humidity 68%
Rainfall 0.01 in
Snow Depth Not available.
6:07 AM 9:18 PM
Waning Crescent, 4% visible
METAR LFLB 211730Z AUTO 15008KT 9999 RA FEW049/// BKN056/// BKN072/// ///CB 20/18 Q1014 TEMPO VRB15G25KT 2800 TSRA
Pressure 29.95 in
Visibility 6.2 miles
Clouds Few 4900 ft
Mostly Cloudy 5600 ft
Mostly Cloudy 7200 ft
Heat Index 76 °F
Dew Point 63 °F
Humidity 68%
Rainfall 0.01 in
Snow Depth Not available.
6:07 AM 9:18 PM
Waning Crescent, 4% visible
METAR LFLB 211730Z AUTO 15008KT 9999 RA FEW049/// BKN056/// BKN072/// ///CB 20/18 Q1014 TEMPO VRB15G25KT 2800 TSRA

Get Severe Weather Alerts

Thanks for signing up!

Be on the lookout for a verification email in your inbox.

You'll start receiving the daily forecast at 6 AM.

×

10-Day Weather Forecast

×

Almanac

Astronomy

Jul. 21, 2017 Rise Set
Actual Time
Civil Twilight
Nautical Twilight
Astronomical Twilight
Moon
Length of Visible Light
Length of Day
Tomorrow will be .
, % of the Moon is Illuminated

Today's Extremes

Country Highs Country Lows

Community

WunderPhotos

Category 6

Welcome to Category 6. This is the collective home for Weather Underground's featured writeups by Dr. Jeff Masters (right), Bob Henson (left), Chris Burt, and other regular contributors.

Nearby

Air Quality

  Air Quality AQ Index Pollutant
Not available.

Snow Depth

Station Depth Elevation

Earthquake Activity

City Distance Mag. Time & Date
Minimum magnitude displayed is 2.5.

Coastal Water Temperatures

Place Temperature

Stations

Nearby Weather Stations

Station Location Temp. Windchill Dew Point Humidity Wind Precip. Elev Updated Type